createdAt,value
2022-10-22T00:00:05.225Z,14.402466
2022-10-22T00:01:13.910Z,14.402466
2022-10-22T00:02:23.597Z,14.372253
2022-10-22T00:03:31.248Z,14.402466
2022-10-22T00:04:39.950Z,14.412537
2022-10-22T00:05:49.590Z,14.372253
2022-10-22T00:06:58.254Z,14.402466
2022-10-22T00:08:08.311Z,14.402466
2022-10-22T00:09:16.024Z,14.402466
2022-10-22T00:10:25.669Z,14.372253
2022-10-22T00:11:35.341Z,14.402466
2022-10-22T00:12:43.022Z,14.372253
2022-10-22T00:13:52.832Z,14.402466
2022-10-22T00:15:01.518Z,14.372253
2022-10-22T00:16:09.170Z,14.412537
2022-10-22T00:17:18.857Z,14.402466
2022-10-22T00:18:28.510Z,14.402466
2022-10-22T00:19:38.202Z,14.402466
2022-10-22T00:20:47.875Z,14.372253
2022-10-22T00:21:55.539Z,14.362183
2022-10-22T00:23:05.243Z,14.372253
2022-10-22T00:24:14.909Z,14.362183
2022-10-22T00:25:23.729Z,14.362183
2022-10-22T00:26:33.471Z,14.362183
2022-10-22T00:27:42.423Z,14.352112
2022-10-22T00:28:51.832Z,14.352112
2022-10-22T00:30:01.503Z,14.352112
2022-10-22T00:31:11.207Z,14.33197
2022-10-22T00:32:20.881Z,14.33197
2022-10-22T00:33:30.560Z,14.33197
2022-10-22T00:34:39.248Z,14.33197
2022-10-22T00:35:48.912Z,14.352112
2022-10-22T00:36:58.587Z,14.33197
2022-10-22T00:38:08.275Z,14.352112
2022-10-22T00:39:17.959Z,14.362183
2022-10-22T00:40:26.670Z,14.352112
2022-10-22T00:41:36.349Z,14.352112
2022-10-22T00:42:45.044Z,14.372253
2022-10-22T00:43:52.701Z,14.402466
2022-10-22T00:45:02.376Z,14.362183
2022-10-22T00:46:10.081Z,14.412537
2022-10-22T00:47:18.764Z,14.432678
2022-10-22T00:48:28.479Z,14.442749
2022-10-22T00:49:36.202Z,14.513245
2022-10-22T00:50:45.835Z,14.553528
2022-10-22T00:51:54.506Z,14.58374
2022-10-22T00:53:03.167Z,14.634094
2022-10-22T00:54:12.883Z,14.654236
2022-10-22T00:55:21.575Z,14.634094
2022-10-22T00:56:30.258Z,14.603882
2022-10-22T00:57:39.968Z,14.603882
2022-10-22T00:58:47.629Z,14.593811
2022-10-22T00:59:57.337Z,14.58374
2022-10-22T01:01:07.077Z,14.58374
2022-10-22T01:02:15.667Z,14.58374
2022-10-22T01:03:25.358Z,14.533386
2022-10-22T01:04:34.018Z,14.533386
2022-10-22T01:05:42.731Z,14.503174
2022-10-22T01:06:52.385Z,14.503174
2022-10-22T01:08:02.082Z,14.483032
2022-10-22T01:09:11.761Z,14.503174
2022-10-22T01:10:20.417Z,14.472961
2022-10-22T01:11:30.109Z,14.45282
2022-10-22T01:12:39.974Z,14.442749
2022-10-22T01:13:48.458Z,14.412537
2022-10-22T01:14:58.140Z,14.412537
2022-10-22T01:16:07.810Z,14.402466
2022-10-22T01:17:17.680Z,14.372253
2022-10-22T01:18:27.395Z,14.402466
2022-10-22T01:19:37.145Z,14.372253
2022-10-22T01:20:45.891Z,14.362183
2022-10-22T01:21:55.678Z,14.352112
2022-10-22T01:28:03.948Z,14.321899
2022-10-22T01:29:13.672Z,14.301758
2022-10-22T01:30:22.371Z,14.291687
2022-10-22T01:31:30.078Z,14.281616
2022-10-22T01:32:39.791Z,14.261475
2022-10-22T01:33:48.512Z,14.261475
2022-10-22T01:34:57.221Z,14.281616
2022-10-22T01:36:07.154Z,14.261475
2022-10-22T01:37:14.857Z,14.251404
2022-10-22T01:38:23.630Z,14.251404
2022-10-22T01:39:33.324Z,14.231262
2022-10-22T01:40:43.070Z,14.221191
2022-10-22T01:41:52.797Z,14.221191
2022-10-22T01:43:02.495Z,14.221191
2022-10-22T01:44:12.243Z,14.20105
2022-10-22T01:45:19.955Z,14.180908
2022-10-22T01:46:29.689Z,14.20105
2022-10-22T01:47:38.633Z,14.20105
2022-10-22T01:48:46.065Z,14.180908
2022-10-22T01:49:54.777Z,14.180908
2022-10-22T01:51:03.494Z,14.180908
2022-10-22T01:52:11.235Z,14.170837
2022-10-22T01:53:20.866Z,14.150696
2022-10-22T01:54:29.532Z,14.150696
2022-10-22T01:55:38.354Z,14.150696
2022-10-22T01:56:46.134Z,14.140625
2022-10-22T01:57:54.819Z,14.140625
2022-10-22T01:59:03.533Z,14.110413
2022-10-22T02:00:11.243Z,14.120483
2022-10-22T02:01:18.904Z,14.120483
2022-10-22T02:02:26.612Z,14.110413
2022-10-22T02:03:35.302Z,14.100342
2022-10-22T02:04:44.043Z,14.100342
2022-10-22T02:05:53.737Z,14.0802
2022-10-22T02:07:03.424Z,14.0802
2022-10-22T02:08:12.158Z,14.070129
2022-10-22T02:09:20.814Z,14.070129
2022-10-22T02:10:29.619Z,14.070129
2022-10-22T02:11:38.311Z,14.049988
2022-10-22T02:12:46.970Z,14.049988
2022-10-22T02:13:54.643Z,14.070129
2022-10-22T02:15:03.306Z,14.049988
2022-10-22T02:16:10.959Z,14.039917
2022-10-22T02:17:18.631Z,14.039917
2022-10-22T02:18:26.360Z,14.039917
2022-10-22T02:19:37.061Z,14.049988
2022-10-22T02:20:46.754Z,14.029846
2022-10-22T02:21:55.441Z,14.029846
2022-10-22T02:23:04.135Z,14.029846
2022-10-22T02:24:13.842Z,14.029846
2022-10-22T02:25:22.483Z,14.039917
2022-10-22T02:26:31.172Z,14.029846
2022-10-22T02:27:39.847Z,14.039917
2022-10-22T02:28:47.585Z,14.039917
2022-10-22T02:29:57.294Z,14.039917
2022-10-22T02:31:06.971Z,14.039917
2022-10-22T02:32:15.678Z,14.049988
2022-10-22T02:33:24.461Z,14.049988
2022-10-22T02:34:33.169Z,14.070129
2022-10-22T02:35:41.866Z,14.039917
2022-10-22T02:36:50.685Z,14.070129
2022-10-22T02:37:58.396Z,14.049988
2022-10-22T02:39:08.175Z,14.049988
2022-10-22T02:40:17.996Z,14.049988
2022-10-22T02:41:27.706Z,14.070129
2022-10-22T02:42:37.557Z,14.049988
2022-10-22T02:43:45.030Z,14.070129
2022-10-22T02:44:52.733Z,14.049988
2022-10-22T02:46:01.406Z,14.070129
2022-10-22T02:47:09.106Z,14.070129
2022-10-22T02:48:18.806Z,14.049988
2022-10-22T02:49:26.517Z,14.049988
2022-10-22T02:50:36.318Z,14.070129
2022-10-22T02:51:46.030Z,14.070129
2022-10-22T02:52:53.740Z,14.049988
2022-10-22T02:54:01.392Z,14.070129
2022-10-22T02:55:10.074Z,14.070129
2022-10-22T02:56:19.801Z,14.070129
2022-10-22T02:57:28.458Z,14.049988
2022-10-22T02:58:36.274Z,14.049988
2022-10-22T02:59:44.992Z,14.049988
2022-10-22T03:00:51.767Z,14.039917
2022-10-22T03:02:01.400Z,14.070129
2022-10-22T03:03:11.064Z,14.039917
2022-10-22T03:04:20.794Z,14.039917
2022-10-22T03:05:30.514Z,14.039917
2022-10-22T03:06:39.162Z,14.039917
2022-10-22T03:07:48.862Z,14.029846
2022-10-22T03:08:58.575Z,14.039917
2022-10-22T03:10:08.301Z,14.029846
2022-10-22T03:11:16.977Z,14.039917
2022-10-22T03:12:23.668Z,13.999634
2022-10-22T03:13:32.391Z,14.029846
2022-10-22T03:14:41.102Z,14.029846
2022-10-22T03:15:50.837Z,14.029846
2022-10-22T03:17:00.533Z,13.999634
2022-10-22T03:18:10.245Z,14.029846
2022-10-22T03:19:17.953Z,13.999634
2022-10-22T03:20:27.662Z,13.999634
2022-10-22T03:21:36.378Z,13.989563
2022-10-22T03:22:45.073Z,13.999634
2022-10-22T03:23:54.774Z,13.989563
2022-10-22T03:25:01.586Z,13.989563
2022-10-22T03:26:08.272Z,13.969421
2022-10-22T03:27:17.945Z,13.959351
2022-10-22T03:28:26.628Z,13.969421
2022-10-22T03:29:36.257Z,13.989563
2022-10-22T03:30:45.926Z,13.969421
2022-10-22T03:31:53.598Z,13.969421
2022-10-22T03:33:02.423Z,13.969421
2022-10-22T03:34:12.219Z,13.969421
2022-10-22T03:35:20.922Z,13.959351
2022-10-22T03:36:29.606Z,13.969421
2022-10-22T03:37:38.377Z,13.989563
2022-10-22T03:38:46.035Z,13.969421
2022-10-22T03:39:55.734Z,13.989563
2022-10-22T03:41:03.405Z,13.969421
2022-10-22T03:42:12.100Z,13.969421
2022-10-22T03:43:21.777Z,13.959351
2022-10-22T03:44:30.495Z,13.94928
2022-10-22T03:45:39.195Z,13.94928
2022-10-22T03:46:47.849Z,13.919067
2022-10-22T03:47:57.534Z,13.858643
2022-10-22T03:49:07.214Z,13.82843
2022-10-22T03:50:14.937Z,13.788147
2022-10-22T03:51:24.703Z,13.788147
2022-10-22T03:52:34.440Z,13.707581
2022-10-22T03:53:44.094Z,13.677368
2022-10-22T03:54:53.717Z,13.627014
2022-10-22T03:56:02.441Z,13.586731
2022-10-22T03:57:10.129Z,13.536377
2022-10-22T03:58:18.868Z,13.526306
2022-10-22T03:59:27.537Z,13.496094
2022-10-22T04:00:36.353Z,13.496094
2022-10-22T04:01:46.015Z,13.486023
2022-10-22T04:02:55.783Z,13.486023
2022-10-22T04:04:04.436Z,13.465881
2022-10-22T04:06:21.837Z,13.365173
2022-10-22T04:07:31.560Z,13.345032
2022-10-22T04:08:41.328Z,13.314819
2022-10-22T04:09:51.013Z,13.304749
2022-10-22T04:11:00.754Z,13.284607
2022-10-22T04:12:10.454Z,13.274536
2022-10-22T04:13:19.130Z,13.254395
2022-10-22T04:14:25.787Z,13.234253
2022-10-22T04:15:33.528Z,13.224182
2022-10-22T04:16:42.225Z,13.204041
2022-10-22T04:17:51.896Z,13.183899
2022-10-22T04:19:01.629Z,13.153687
2022-10-22T04:20:11.323Z,13.153687
2022-10-22T04:21:20.078Z,13.133545
2022-10-22T04:22:28.814Z,13.123474
2022-10-22T04:23:36.521Z,13.113403
2022-10-22T04:24:44.234Z,13.123474
2022-10-22T04:25:52.895Z,13.113403
2022-10-22T04:27:01.567Z,13.083191
2022-10-22T04:28:10.257Z,13.083191
2022-10-22T04:29:18.963Z,13.083191
2022-10-22T04:30:26.782Z,13.052979
2022-10-22T04:31:35.458Z,13.052979
2022-10-22T04:32:44.152Z,13.052979
2022-10-22T04:33:52.863Z,13.052979
2022-10-22T04:35:01.561Z,13.032837
2022-10-22T04:36:10.376Z,13.032837
2022-10-22T04:37:17.068Z,13.032837
2022-10-22T04:38:25.756Z,13.012695
2022-10-22T04:39:34.454Z,13.012695
2022-10-22T04:40:44.221Z,13.012695
2022-10-22T04:41:54.000Z,13.002625
2022-10-22T04:43:02.675Z,12.982483
2022-10-22T04:44:13.657Z,12.982483
2022-10-22T04:45:21.090Z,12.982483
2022-10-22T04:46:30.775Z,12.982483
2022-10-22T04:47:40.840Z,12.982483
2022-10-22T04:48:49.337Z,12.972412
2022-10-22T04:49:59.015Z,12.952271
2022-10-22T04:51:07.685Z,12.9422
2022-10-22T04:52:15.356Z,12.932129
2022-10-22T04:53:24.031Z,12.932129
2022-10-22T04:54:33.856Z,12.932129
2022-10-22T04:55:42.587Z,12.911987
2022-10-22T04:56:51.263Z,12.911987
2022-10-22T04:58:00.971Z,12.911987
2022-10-22T04:59:09.744Z,12.861633
2022-10-22T05:00:17.428Z,12.861633
2022-10-22T05:01:27.220Z,12.851562
2022-10-22T05:02:36.889Z,12.831421
2022-10-22T05:03:45.596Z,12.831421
2022-10-22T05:04:54.337Z,12.82135
2022-10-22T05:06:04.057Z,12.791138
2022-10-22T05:07:12.667Z,12.791138
2022-10-22T05:08:20.358Z,12.791138
2022-10-22T05:09:29.052Z,12.791138
2022-10-22T05:10:38.767Z,12.781067
2022-10-22T05:11:48.646Z,12.750854
2022-10-22T05:12:56.164Z,12.730713
2022-10-22T05:14:03.805Z,12.750854
2022-10-22T05:15:12.489Z,12.730713
2022-10-22T05:16:21.178Z,12.730713
2022-10-22T05:17:36.954Z,12.760925
2022-10-22T05:18:45.616Z,12.720642
2022-10-22T05:19:55.295Z,12.720642
2022-10-22T05:21:03.018Z,12.720642
2022-10-22T05:22:12.710Z,12.7005
2022-10-22T05:23:20.409Z,12.7005
2022-10-22T05:24:29.058Z,12.680359
2022-10-22T05:25:38.747Z,12.680359
2022-10-22T05:26:47.421Z,12.670288
2022-10-22T05:27:57.303Z,12.670288
2022-10-22T05:29:06.788Z,12.670288
2022-10-22T05:30:15.496Z,12.670288
2022-10-22T05:31:25.168Z,12.650146
2022-10-22T05:32:32.844Z,12.670288
2022-10-22T05:33:41.516Z,12.680359
2022-10-22T05:34:51.185Z,12.670288
2022-10-22T05:35:58.849Z,12.680359
2022-10-22T05:37:08.584Z,12.680359
2022-10-22T05:38:18.267Z,12.7005
2022-10-22T05:39:26.067Z,12.7005
2022-10-22T05:40:35.751Z,12.7005
2022-10-22T05:41:43.468Z,12.720642
2022-10-22T05:42:52.245Z,12.720642
2022-10-22T05:44:00.929Z,12.720642
2022-10-22T05:45:09.652Z,12.720642
2022-10-22T05:46:22.418Z,12.720642
2022-10-22T05:47:29.040Z,12.750854
2022-10-22T05:48:36.719Z,12.781067
2022-10-22T05:49:46.403Z,12.791138
2022-10-22T05:50:55.128Z,12.801208
2022-10-22T05:52:03.815Z,12.851562
2022-10-22T05:53:13.550Z,12.871704
2022-10-22T05:54:23.238Z,12.901917
2022-10-22T05:55:33.022Z,12.901917
2022-10-22T05:56:42.724Z,12.911987
2022-10-22T05:57:50.388Z,13.002625
2022-10-22T05:59:00.228Z,13.083191
2022-10-22T06:00:09.546Z,13.093262
2022-10-22T06:01:17.437Z,13.093262
2022-10-22T06:02:27.169Z,13.083191
2022-10-22T06:03:35.824Z,13.083191
2022-10-22T06:04:45.564Z,13.052979
2022-10-22T06:05:54.275Z,13.093262
2022-10-22T06:07:02.970Z,13.083191
2022-10-22T06:08:16.697Z,13.052979
2022-10-22T06:09:22.388Z,13.032837
2022-10-22T06:10:31.036Z,13.012695
2022-10-22T06:11:40.791Z,13.012695
2022-10-22T06:12:48.509Z,13.012695
2022-10-22T06:13:58.245Z,13.052979
2022-10-22T06:15:06.924Z,13.042908
2022-10-22T06:16:14.589Z,13.083191
2022-10-22T06:17:25.245Z,13.093262
2022-10-22T06:18:34.946Z,13.093262
2022-10-22T06:19:44.660Z,13.042908
2022-10-22T06:20:54.332Z,13.042908
2022-10-22T06:22:01.989Z,13.032837
2022-10-22T06:23:11.674Z,13.042908
2022-10-22T06:24:20.349Z,13.042908
2022-10-22T06:25:28.070Z,13.042908
2022-10-22T06:26:37.747Z,13.042908
2022-10-22T06:27:45.495Z,13.032837
2022-10-22T06:28:54.189Z,13.012695
2022-10-22T06:30:03.883Z,13.002625
2022-10-22T06:31:11.573Z,12.982483
2022-10-22T06:32:21.340Z,12.982483
2022-10-22T06:33:31.073Z,12.982483
2022-10-22T06:34:38.741Z,12.982483
2022-10-22T06:35:48.426Z,13.002625
2022-10-22T06:36:56.118Z,12.982483
2022-10-22T06:38:04.805Z,12.972412
2022-10-22T06:39:14.500Z,12.9422
2022-10-22T06:40:23.231Z,12.9422
2022-10-22T06:41:32.933Z,12.932129
2022-10-22T06:42:43.059Z,12.932129
2022-10-22T06:43:51.409Z,12.932129
2022-10-22T06:46:12.652Z,12.911987
2022-10-22T06:47:21.388Z,12.911987
2022-10-22T06:48:31.117Z,12.932129
2022-10-22T06:49:39.790Z,12.932129
2022-10-22T06:50:49.461Z,12.932129
2022-10-22T06:51:59.150Z,12.972412
2022-10-22T06:53:06.920Z,12.952271
2022-10-22T06:54:15.527Z,12.972412
2022-10-22T06:55:25.200Z,12.972412
2022-10-22T06:56:33.870Z,13.002625
2022-10-22T06:57:43.826Z,12.982483
2022-10-22T06:58:52.206Z,12.982483
2022-10-22T07:00:01.930Z,13.012695
2022-10-22T07:01:10.632Z,13.032837
2022-10-22T07:02:19.270Z,13.052979
2022-10-22T07:03:28.942Z,13.093262
2022-10-22T07:04:36.607Z,13.113403
2022-10-22T07:05:46.289Z,13.123474
2022-10-22T07:06:55.977Z,13.123474
2022-10-22T07:08:04.641Z,13.123474
2022-10-22T07:09:13.433Z,13.123474
2022-10-22T07:10:24.966Z,13.113403
2022-10-22T07:11:32.661Z,13.113403
2022-10-22T07:12:42.724Z,13.113403
2022-10-22T07:13:51.049Z,13.123474
2022-10-22T07:15:00.694Z,13.123474
2022-10-22T07:16:08.368Z,13.133545
2022-10-22T07:17:17.082Z,13.153687
2022-10-22T07:18:26.746Z,13.153687
2022-10-22T07:19:34.470Z,13.163757
2022-10-22T07:20:44.253Z,13.153687
2022-10-22T07:21:54.005Z,13.133545
2022-10-22T07:23:01.703Z,13.133545
2022-10-22T07:24:11.445Z,13.123474
2022-10-22T07:25:19.099Z,13.123474
2022-10-22T07:26:28.782Z,13.083191
2022-10-22T07:27:38.798Z,13.083191
2022-10-22T07:28:47.198Z,13.093262
2022-10-22T07:29:56.916Z,13.113403
2022-10-22T07:31:06.567Z,13.133545
2022-10-22T07:32:14.250Z,13.123474
2022-10-22T07:33:24.901Z,13.123474
2022-10-22T07:34:32.595Z,13.133545
2022-10-22T07:35:42.248Z,13.153687
2022-10-22T07:36:51.982Z,13.163757
2022-10-22T07:38:01.703Z,13.183899
2022-10-22T07:39:11.389Z,13.183899
2022-10-22T07:40:20.112Z,13.234253
2022-10-22T07:41:28.845Z,13.234253
2022-10-22T07:42:38.548Z,13.304749
2022-10-22T07:43:47.247Z,13.334961
2022-10-22T07:44:56.957Z,13.365173
2022-10-22T07:46:06.746Z,13.405457
2022-10-22T07:47:16.463Z,13.385315
2022-10-22T07:48:26.154Z,13.405457
2022-10-22T07:49:34.924Z,13.415527
2022-10-22T07:51:53.446Z,13.516235
2022-10-22T07:53:02.151Z,13.556519
2022-10-22T07:54:11.857Z,13.586731
2022-10-22T07:55:21.541Z,13.616943
2022-10-22T07:56:30.232Z,13.667297
2022-10-22T07:57:39.983Z,13.667297
2022-10-22T07:58:49.711Z,13.677368
2022-10-22T07:59:58.386Z,13.69751
2022-10-22T08:01:08.176Z,13.717651
2022-10-22T08:02:17.753Z,13.737793
2022-10-22T08:03:26.477Z,13.778076
2022-10-22T08:04:36.208Z,13.788147
2022-10-22T08:05:45.994Z,13.848572
2022-10-22T08:06:55.671Z,13.82843
2022-10-22T08:08:04.412Z,13.858643
2022-10-22T08:09:14.180Z,13.868713
2022-10-22T08:10:23.894Z,13.898926
2022-10-22T08:11:31.590Z,13.919067
2022-10-22T08:12:40.538Z,13.929138
2022-10-22T08:13:49.971Z,13.929138
2022-10-22T08:14:58.681Z,13.94928
2022-10-22T08:16:08.428Z,13.959351
2022-10-22T08:17:17.126Z,13.999634
2022-10-22T08:18:25.782Z,14.029846
2022-10-22T08:19:35.496Z,14.049988
2022-10-22T08:20:43.191Z,14.049988
2022-10-22T08:21:51.916Z,14.049988
2022-10-22T08:23:01.616Z,14.0802
2022-10-22T08:24:10.294Z,14.110413
2022-10-22T08:25:19.958Z,14.110413
2022-10-22T08:26:28.699Z,14.150696
2022-10-22T08:27:36.425Z,14.170837
2022-10-22T08:28:47.251Z,14.180908
2022-10-22T08:29:55.926Z,14.180908
2022-10-22T08:31:04.653Z,14.221191
2022-10-22T08:32:14.403Z,14.231262
2022-10-22T08:33:25.114Z,14.251404
2022-10-22T08:34:34.758Z,14.261475
2022-10-22T08:35:43.484Z,14.261475
2022-10-22T08:36:52.144Z,14.261475
2022-10-22T08:38:01.957Z,14.251404
2022-10-22T08:39:10.632Z,14.261475
2022-10-22T08:40:19.404Z,14.281616
2022-10-22T08:41:29.061Z,14.281616
2022-10-22T08:42:36.717Z,14.281616
2022-10-22T08:43:46.653Z,14.251404
2022-10-22T08:44:55.495Z,14.261475
2022-10-22T08:46:03.192Z,14.251404
2022-10-22T08:47:12.869Z,14.261475
2022-10-22T08:48:22.528Z,14.261475
2022-10-22T08:49:32.403Z,14.281616
2022-10-22T08:50:43.118Z,14.261475
2022-10-22T08:51:51.236Z,14.281616
2022-10-22T08:53:01.534Z,14.291687
2022-10-22T08:54:10.262Z,14.301758
2022-10-22T08:55:18.086Z,14.291687
2022-10-22T08:56:27.866Z,14.291687
2022-10-22T08:57:36.535Z,14.33197
2022-10-22T08:58:45.253Z,14.321899
2022-10-22T08:59:54.937Z,14.321899
2022-10-22T09:01:02.675Z,14.362183
2022-10-22T09:02:12.352Z,14.412537
2022-10-22T09:03:21.063Z,14.45282
2022-10-22T09:04:28.747Z,14.503174
2022-10-22T09:05:38.558Z,14.533386
2022-10-22T09:06:49.482Z,14.553528
2022-10-22T09:07:57.300Z,14.543457
2022-10-22T09:09:07.092Z,14.543457
2022-10-22T09:10:16.716Z,14.543457
2022-10-22T09:11:26.441Z,14.533386
2022-10-22T09:12:35.130Z,14.533386
2022-10-22T09:13:44.848Z,14.543457
2022-10-22T09:14:54.563Z,14.553528
2022-10-22T09:16:03.275Z,14.543457
2022-10-22T09:17:12.973Z,14.543457
2022-10-22T09:18:20.695Z,14.533386
2022-10-22T09:19:29.404Z,14.543457
2022-10-22T09:20:39.109Z,14.543457
2022-10-22T09:21:47.822Z,14.553528
2022-10-22T09:22:57.544Z,14.543457
2022-10-22T09:24:06.298Z,14.553528
2022-10-22T09:25:14.991Z,14.553528
2022-10-22T09:26:24.680Z,14.624023
2022-10-22T09:27:33.392Z,14.664307
2022-10-22T09:28:42.070Z,14.684448
2022-10-22T09:29:51.792Z,14.70459
2022-10-22T09:30:59.493Z,14.734802
2022-10-22T09:32:09.185Z,14.785156
2022-10-22T09:33:20.206Z,14.815369
2022-10-22T09:34:27.636Z,14.845581
2022-10-22T09:35:36.384Z,14.885864
2022-10-22T09:36:45.104Z,14.916077
2022-10-22T09:37:54.810Z,14.95636
2022-10-22T09:39:04.548Z,14.996643
2022-10-22T09:40:12.181Z,15.036926
2022-10-22T09:41:21.888Z,15.057068
2022-10-22T09:42:31.591Z,15.067139
2022-10-22T09:43:40.416Z,15.097351
2022-10-22T09:44:50.138Z,15.147705
2022-10-22T09:45:57.842Z,15.187988
2022-10-22T09:47:07.569Z,15.238342
2022-10-22T09:48:17.372Z,15.278625
2022-10-22T09:49:25.085Z,15.248413
2022-10-22T09:50:34.799Z,15.288696
2022-10-22T09:51:44.529Z,15.349121
2022-10-22T09:52:54.439Z,15.328979
2022-10-22T09:54:04.160Z,15.349121
2022-10-22T09:55:13.890Z,15.328979
2022-10-22T09:56:23.597Z,15.328979
2022-10-22T09:57:33.278Z,15.278625
2022-10-22T09:58:42.946Z,15.268555
2022-10-22T09:59:52.635Z,15.278625
2022-10-22T10:01:02.426Z,15.328979
2022-10-22T10:02:13.919Z,15.359192
2022-10-22T10:03:20.884Z,15.359192
2022-10-22T10:04:29.466Z,15.369263
2022-10-22T10:05:38.135Z,15.389404
2022-10-22T10:06:47.839Z,15.369263
2022-10-22T10:07:56.515Z,15.359192
2022-10-22T10:09:06.321Z,15.359192
2022-10-22T10:10:16.035Z,15.308838
2022-10-22T10:11:28.121Z,15.248413
2022-10-22T10:12:33.423Z,15.187988
2022-10-22T10:13:42.087Z,15.177917
2022-10-22T10:14:50.800Z,15.167847
2022-10-22T10:15:59.540Z,15.187988
2022-10-22T10:17:09.239Z,15.238342
2022-10-22T10:18:18.928Z,15.268555
2022-10-22T10:19:27.634Z,15.268555
2022-10-22T10:20:36.335Z,15.288696
2022-10-22T10:21:46.113Z,15.278625
2022-10-22T10:22:53.789Z,15.218201
2022-10-22T10:24:03.555Z,15.248413
2022-10-22T10:25:13.281Z,15.288696
2022-10-22T10:26:22.955Z,15.359192
2022-10-22T10:27:32.664Z,15.419617
2022-10-22T10:28:41.393Z,15.419617
2022-10-22T10:29:50.077Z,15.520325
2022-10-22T10:31:00.874Z,15.651245
2022-10-22T10:32:08.457Z,15.772095
2022-10-22T10:33:19.189Z,15.882874
2022-10-22T10:34:28.902Z,15.862732
2022-10-22T10:35:37.595Z,15.882874
2022-10-22T10:36:47.307Z,15.923157
2022-10-22T10:37:59.061Z,15.923157
2022-10-22T10:39:05.751Z,15.903015
2022-10-22T10:40:15.471Z,16.003723
2022-10-22T10:41:24.161Z,16.08429
2022-10-22T10:42:32.919Z,16.134644
2022-10-22T10:43:42.624Z,16.104431
2022-10-22T10:44:51.321Z,16.205139
2022-10-22T10:46:01.056Z,16.225281
2022-10-22T10:47:10.761Z,16.386414
2022-10-22T10:48:20.502Z,16.5979
2022-10-22T10:49:29.271Z,16.748962
2022-10-22T10:50:38.003Z,16.809387
2022-10-22T10:51:46.815Z,16.859741
2022-10-22T10:52:56.513Z,16.809387
2022-10-22T10:54:05.424Z,16.859741
2022-10-22T10:55:15.150Z,16.8396
2022-10-22T10:56:24.051Z,16.8396
2022-10-22T10:57:34.731Z,16.97052
2022-10-22T10:58:44.477Z,17.22229
2022-10-22T10:59:54.180Z,17.272644
2022-10-22T11:01:02.899Z,17.333069
2022-10-22T11:02:11.615Z,17.564697
2022-10-22T11:03:21.318Z,17.826538
2022-10-22T11:04:31.056Z,18.048096
2022-10-22T11:05:40.777Z,18.108521
2022-10-22T11:06:48.471Z,18.249512
2022-10-22T11:07:58.476Z,18.128662
2022-10-22T11:09:05.928Z,17.9776
2022-10-22T11:10:15.554Z,18.158875
2022-10-22T11:11:25.263Z,18.561707
2022-10-22T11:12:33.985Z,18.783264
2022-10-22T11:13:43.708Z,18.60199
2022-10-22T11:14:52.343Z,18.60199
2022-10-22T11:16:02.042Z,18.531494
2022-10-22T11:17:11.728Z,18.742981
2022-10-22T11:18:20.464Z,19.004822
2022-10-22T11:19:46.463Z,19.115601
2022-10-22T11:20:40.852Z,19.186096
2022-10-22T11:21:50.593Z,19.186096
2022-10-22T11:23:18.594Z,19.075317
2022-10-22T11:24:11.024Z,19.035034
2022-10-22T11:25:20.751Z,18.742981
2022-10-22T11:26:29.461Z,18.712769
2022-10-22T11:27:38.333Z,18.833618
2022-10-22T11:28:47.888Z,18.783264
2022-10-22T11:29:57.589Z,18.783264
2022-10-22T11:31:06.301Z,18.833618
2022-10-22T11:32:16.041Z,18.863831
2022-10-22T11:33:24.762Z,18.753052
2022-10-22T11:34:34.746Z,18.863831
2022-10-22T11:35:43.164Z,19.186096
2022-10-22T11:36:51.928Z,19.48822
2022-10-22T11:38:01.618Z,19.729919
2022-10-22T11:39:10.326Z,19.588928
2022-10-22T11:40:18.996Z,19.588928
2022-10-22T11:41:28.683Z,19.367371
2022-10-22T11:42:36.382Z,19.407654
2022-10-22T11:43:46.121Z,19.508362
2022-10-22T11:44:55.845Z,19.770203
2022-10-22T11:46:03.498Z,20.021973
2022-10-22T11:47:13.244Z,20.36438
2022-10-22T11:48:22.044Z,20.626221
2022-10-22T11:49:31.730Z,20.817566
2022-10-22T11:50:41.411Z,21.220398
2022-10-22T11:51:50.097Z,21.522522
2022-10-22T11:52:59.807Z,21.75415
2022-10-22T11:54:08.529Z,21.663513
2022-10-22T11:55:17.221Z,21.300964
2022-10-22T11:56:26.901Z,20.656433
2022-10-22T11:57:34.632Z,20.465088
2022-10-22T11:58:44.321Z,20.404663
2022-10-22T11:59:55.255Z,20.404663
2022-10-22T12:01:04.958Z,20.293884
2022-10-22T12:02:14.648Z,20.193176
2022-10-22T12:03:23.371Z,20.465088
2022-10-22T12:04:32.115Z,20.444946
2022-10-22T12:05:40.808Z,20.414734
2022-10-22T12:06:49.609Z,20.475159
2022-10-22T12:07:59.308Z,20.555725
2022-10-22T12:09:10.046Z,20.877991
2022-10-22T12:10:18.398Z,21.663513
2022-10-22T12:11:27.470Z,22.096558
2022-10-22T12:12:36.173Z,21.774292
2022-10-22T12:13:44.907Z,21.361389
2022-10-22T12:14:54.662Z,20.767212
2022-10-22T12:16:03.396Z,20.444946
2022-10-22T12:17:13.114Z,20.072327
2022-10-22T12:18:22.817Z,19.729919
2022-10-22T12:19:31.599Z,19.619141
2022-10-22T12:20:41.306Z,19.407654
2022-10-22T12:21:49.991Z,19.256592
2022-10-22T12:22:57.699Z,19.206238
2022-10-22T12:24:07.428Z,19.135742
2022-10-22T12:25:16.184Z,18.964539
2022-10-22T12:26:24.922Z,18.934326
2022-10-22T12:27:34.568Z,18.894043
2022-10-22T12:28:42.306Z,18.843689
2022-10-22T12:29:52.043Z,18.904114
2022-10-22T12:31:00.726Z,18.863831
2022-10-22T12:32:09.535Z,18.783264
2022-10-22T12:33:19.228Z,18.954468
2022-10-22T12:34:28.953Z,19.296875
2022-10-22T12:35:37.639Z,19.296875
2022-10-22T12:36:47.316Z,19.256592
2022-10-22T12:37:56.996Z,19.115601
2022-10-22T12:39:06.715Z,19.035034
2022-10-22T12:40:15.407Z,18.964539
2022-10-22T12:41:23.143Z,18.954468
2022-10-22T12:42:32.855Z,18.954468
2022-10-22T12:43:42.596Z,18.904114
2022-10-22T12:44:51.299Z,18.803406
2022-10-22T12:46:01.010Z,18.712769
2022-10-22T12:47:10.682Z,18.682556
2022-10-22T12:48:20.385Z,18.662415
2022-10-22T12:49:30.134Z,18.652344
2022-10-22T12:50:38.809Z,18.60199
2022-10-22T12:51:48.568Z,18.561707
2022-10-22T12:52:56.276Z,18.531494
2022-10-22T12:54:04.991Z,18.491211
2022-10-22T12:55:14.690Z,18.400574
2022-10-22T12:56:24.442Z,18.340149
2022-10-22T12:57:34.186Z,18.249512
2022-10-22T12:58:44.698Z,18.179016
2022-10-22T12:59:52.453Z,18.148804
2022-10-22T13:01:02.244Z,18.09845
2022-10-22T13:02:11.206Z,18.068237
2022-10-22T13:03:19.786Z,18.068237
2022-10-22T13:04:29.579Z,18.038025
2022-10-22T13:05:39.251Z,18.068237
2022-10-22T13:06:48.953Z,18.048096
2022-10-22T13:07:56.620Z,18.027954
2022-10-22T13:09:06.447Z,18.027954
2022-10-22T13:10:15.138Z,18.027954
2022-10-22T13:11:24.870Z,18.027954
2022-10-22T13:12:34.616Z,18.048096
2022-10-22T13:13:43.415Z,18.068237
2022-10-22T13:14:53.174Z,18.048096
2022-10-22T13:16:02.915Z,18.038025
2022-10-22T13:17:12.608Z,18.038025
2022-10-22T13:18:22.285Z,18.007812